Val Verde, California
Current Conditions -  °F | °C
As of 11:03 AM on Saturday 20 Dec 2014 (Local Time) from KSDB Reporting Station
Few Clouds Few Clouds  
Wind Chill: 51°   Ceiling: Unl
Heat Index: 51°   Visibility: 10mi
Dew Point: 43°   Wind: 16mph
Humidity: 74%   Direction: 340°NNW
Pressure: 30.21"   Gusts: NA
Location:  34.5552°N, 118.643°W
Report Text: KSDB 201903Z AUTO 34014KT 10SM FEW008 11/06 A3021 RMK AO2 T01060061
Loading
Personal Weather Stations






























Interactive Weather Map New forecast layout! Learn more

10-Day Weather Forecast

Advertisements
Track Severe Weather on mobile